createdAt,value
2018-10-02T00:00:08.438Z,5.80
2018-10-02T00:02:35.740Z,5.70
2018-10-02T00:05:03.033Z,5.70
2018-10-02T00:07:30.211Z,5.70
2018-10-02T00:09:57.479Z,5.70
2018-10-02T00:12:30.501Z,5.60
2018-10-02T00:14:57.705Z,5.60
2018-10-02T00:17:24.950Z,5.60
2018-10-02T00:19:52.771Z,5.60
2018-10-02T00:22:19.947Z,5.60
2018-10-02T00:24:47.209Z,5.60
2018-10-02T00:27:14.555Z,5.50
2018-10-02T00:29:41.829Z,5.50
2018-10-02T00:32:09.177Z,5.50
2018-10-02T00:34:36.260Z,5.50
2018-10-02T00:37:03.444Z,5.50
2018-10-02T00:39:30.735Z,5.50
2018-10-02T00:41:58.770Z,5.50
2018-10-02T00:44:25.976Z,5.50
2018-10-02T00:46:53.186Z,5.50
2018-10-02T00:49:20.416Z,5.50
2018-10-02T00:51:47.613Z,5.50
2018-10-02T00:54:14.829Z,5.50
2018-10-02T00:56:42.078Z,5.50
2018-10-02T00:59:09.265Z,5.40
2018-10-02T01:01:36.497Z,5.40
2018-10-02T01:04:03.717Z,5.40
2018-10-02T01:06:30.977Z,5.40
2018-10-02T01:08:58.409Z,5.30
2018-10-02T01:11:25.697Z,5.30
2018-10-02T01:13:52.876Z,5.40
2018-10-02T01:16:20.087Z,5.30
2018-10-02T01:18:47.333Z,5.30
2018-10-02T01:21:14.535Z,5.30
2018-10-02T01:23:41.879Z,5.30
2018-10-02T01:26:09.063Z,5.30
2018-10-02T01:28:36.247Z,5.20
2018-10-02T01:31:03.553Z,5.20
2018-10-02T01:33:30.745Z,5.20
2018-10-02T01:35:57.939Z,5.20
2018-10-02T01:38:25.161Z,5.10
2018-10-02T01:40:52.429Z,5.10
2018-10-02T01:43:19.613Z,5.10
2018-10-02T01:45:46.868Z,5.00
2018-10-02T01:48:14.089Z,5.10
2018-10-02T01:50:41.848Z,5.10
2018-10-02T01:53:09.200Z,5.00
2018-10-02T01:55:36.468Z,5.00
2018-10-02T01:58:03.697Z,5.00
2018-10-02T02:00:31.161Z,5.00
2018-10-02T02:02:58.353Z,5.00
2018-10-02T02:05:25.613Z,5.00
2018-10-02T02:07:52.964Z,5.00
2018-10-02T02:10:20.248Z,5.00
2018-10-02T02:12:47.431Z,5.00
2018-10-02T02:15:14.609Z,5.00
2018-10-02T02:17:41.805Z,5.00
2018-10-02T02:20:09.009Z,5.00
2018-10-02T02:22:36.301Z,5.00
2018-10-02T02:25:03.768Z,5.00
2018-10-02T02:27:30.928Z,5.00
2018-10-02T02:29:58.154Z,5.00
2018-10-02T02:32:25.355Z,5.00
2018-10-02T02:34:52.546Z,5.00
2018-10-02T02:37:19.719Z,5.10
2018-10-02T02:39:46.908Z,5.00
2018-10-02T02:42:14.196Z,5.00
2018-10-02T02:44:41.375Z,5.00
2018-10-02T02:47:14.265Z,5.00
2018-10-02T02:49:47.298Z,5.00
2018-10-02T02:52:15.872Z,4.90
2018-10-02T02:54:43.062Z,4.90
2018-10-02T02:57:10.359Z,4.90
2018-10-02T02:59:37.562Z,4.90
2018-10-02T03:02:04.792Z,4.90
2018-10-02T03:04:32.773Z,5.00
2018-10-02T03:06:59.975Z,5.00
2018-10-02T03:09:27.269Z,5.00
2018-10-02T03:11:54.471Z,5.00
2018-10-02T03:14:21.650Z,5.10
2018-10-02T03:16:48.868Z,5.20
2018-10-02T03:19:16.136Z,5.20
2018-10-02T03:21:43.378Z,5.20
2018-10-02T03:24:10.538Z,5.20
2018-10-02T03:26:37.763Z,5.20
2018-10-02T03:29:05.069Z,5.20
2018-10-02T03:31:32.562Z,5.30
2018-10-02T03:33:59.866Z,5.30
2018-10-02T03:36:27.162Z,5.30
2018-10-02T03:38:54.381Z,5.40
2018-10-02T03:41:21.653Z,5.40
2018-10-02T03:43:48.845Z,5.50
2018-10-02T03:46:16.063Z,5.60
2018-10-02T03:48:43.344Z,5.50
2018-10-02T03:51:10.552Z,5.60
2018-10-02T03:53:38.822Z,5.70
2018-10-02T03:56:06.069Z,5.80
2018-10-02T03:58:33.285Z,5.80
2018-10-02T04:01:00.476Z,5.90
2018-10-02T04:03:27.811Z,5.80
2018-10-02T04:05:55.048Z,5.90
2018-10-02T04:08:22.241Z,6.00
2018-10-02T04:10:51.924Z,6.00
2018-10-02T04:13:19.191Z,6.00
2018-10-02T04:15:46.373Z,6.00
2018-10-02T04:18:13.624Z,6.10
2018-10-02T04:20:40.897Z,6.20
2018-10-02T04:23:08.068Z,6.20
2018-10-02T04:25:35.281Z,6.30
2018-10-02T04:28:02.551Z,6.40
2018-10-02T04:30:29.717Z,6.40
2018-10-02T04:32:56.925Z,6.50
2018-10-02T04:35:24.090Z,6.50
2018-10-02T04:37:51.349Z,6.60
2018-10-02T04:40:18.606Z,6.60
2018-10-02T04:42:45.796Z,6.70
2018-10-02T04:45:13.177Z,6.70
2018-10-02T04:47:40.537Z,6.70
2018-10-02T04:50:07.721Z,6.80
2018-10-02T04:52:35.056Z,6.90
2018-10-02T04:55:02.332Z,6.90
2018-10-02T04:57:29.481Z,6.90
2018-10-02T04:59:56.728Z,7.00
2018-10-02T05:02:24.014Z,7.00
2018-10-02T05:04:51.185Z,7.00
2018-10-02T05:07:18.362Z,7.00
2018-10-02T05:09:45.564Z,7.00
2018-10-02T05:12:12.879Z,7.10
2018-10-02T05:14:40.338Z,7.10
2018-10-02T05:17:07.513Z,7.10
2018-10-02T05:19:34.859Z,7.10
2018-10-02T05:22:02.149Z,7.10
2018-10-02T05:24:29.392Z,7.20
2018-10-02T05:26:56.652Z,7.30
2018-10-02T05:29:23.904Z,7.30
2018-10-02T05:31:51.138Z,7.30
2018-10-02T05:34:18.337Z,7.30
2018-10-02T05:36:45.594Z,7.40
2018-10-02T05:39:12.834Z,7.30
2018-10-02T05:41:40.118Z,7.40
2018-10-02T05:44:07.343Z,7.40
2018-10-02T05:46:34.586Z,7.30
2018-10-02T05:49:01.939Z,7.40
2018-10-02T05:51:30.018Z,7.40
2018-10-02T05:53:57.282Z,7.50
2018-10-02T05:56:24.598Z,7.40
2018-10-02T05:58:51.915Z,7.40
2018-10-02T06:01:19.261Z,7.50
2018-10-02T06:03:46.611Z,7.50
2018-10-02T06:06:13.861Z,7.60
2018-10-02T06:08:41.081Z,7.60
2018-10-02T06:11:08.315Z,7.60
2018-10-02T06:13:35.589Z,7.60
2018-10-02T06:16:04.031Z,7.70
2018-10-02T06:18:31.477Z,7.60
2018-10-02T06:20:58.714Z,7.70
2018-10-02T06:23:25.958Z,7.70
2018-10-02T06:25:53.289Z,7.80
2018-10-02T06:28:20.473Z,7.80
2018-10-02T06:30:47.778Z,7.80
2018-10-02T06:33:14.957Z,7.90
2018-10-02T06:35:42.146Z,7.80
2018-10-02T06:38:09.718Z,7.80
2018-10-02T06:40:36.905Z,7.80
2018-10-02T06:43:04.102Z,7.80
2018-10-02T06:45:31.338Z,7.70
2018-10-02T06:47:58.529Z,7.70
2018-10-02T06:50:25.786Z,7.60
2018-10-02T06:52:53.074Z,7.60
2018-10-02T06:55:20.291Z,7.50
2018-10-02T06:57:47.476Z,7.50
2018-10-02T07:00:14.862Z,7.50
2018-10-02T07:02:42.141Z,7.50
2018-10-02T07:05:09.440Z,7.40
2018-10-02T07:07:36.884Z,7.40
2018-10-02T07:10:04.893Z,7.40
2018-10-02T07:12:32.088Z,7.50
2018-10-02T07:14:59.369Z,7.50
2018-10-02T07:17:26.596Z,7.50
2018-10-02T07:19:53.883Z,7.50
2018-10-02T07:22:21.090Z,7.60
2018-10-02T07:24:48.425Z,7.50
2018-10-02T07:27:15.838Z,7.60
2018-10-02T07:29:42.981Z,7.60
2018-10-02T07:32:10.329Z,7.70
2018-10-02T07:34:37.570Z,7.70
2018-10-02T07:37:04.901Z,7.70
2018-10-02T07:39:32.209Z,7.70
2018-10-02T07:41:59.526Z,7.70
2018-10-02T07:44:26.750Z,7.70
2018-10-02T07:46:54.141Z,7.80
2018-10-02T07:49:21.420Z,7.80
2018-10-02T07:51:48.921Z,7.80
2018-10-02T07:54:16.121Z,7.80
2018-10-02T07:56:43.437Z,7.90
2018-10-02T07:59:10.777Z,7.90
2018-10-02T08:01:38.212Z,7.90
2018-10-02T08:04:05.461Z,7.90
2018-10-02T08:06:33.702Z,8.00
2018-10-02T08:09:00.929Z,8.10
2018-10-02T08:11:28.351Z,8.20
2018-10-02T08:13:55.864Z,8.30
2018-10-02T08:16:23.183Z,8.30
2018-10-02T08:18:50.390Z,8.40
2018-10-02T08:21:17.808Z,8.50
2018-10-02T08:23:45.062Z,8.50
2018-10-02T08:26:12.362Z,8.50
2018-10-02T08:28:39.598Z,8.50
2018-10-02T08:31:07.784Z,8.50
2018-10-02T08:33:35.026Z,8.50
2018-10-02T08:36:05.083Z,8.50
2018-10-02T08:38:32.279Z,8.50
2018-10-02T08:40:59.714Z,8.50
2018-10-02T08:43:26.928Z,8.60
2018-10-02T08:45:54.142Z,8.60
2018-10-02T08:48:21.431Z,8.60
2018-10-02T08:50:48.686Z,8.50
2018-10-02T08:53:15.946Z,8.50
2018-10-02T08:55:43.241Z,8.50
2018-10-02T08:58:10.480Z,8.50
2018-10-02T09:00:37.830Z,8.40
2018-10-02T09:03:05.032Z,8.40
2018-10-02T09:05:32.537Z,8.50
2018-10-02T09:07:59.759Z,8.40
2018-10-02T09:10:26.971Z,8.40
2018-10-02T09:12:54.269Z,8.40
2018-10-02T09:15:21.474Z,8.40
2018-10-02T09:17:48.719Z,8.50
2018-10-02T09:20:15.982Z,8.50
2018-10-02T09:22:44.119Z,8.50
2018-10-02T09:25:11.367Z,8.50
2018-10-02T09:27:38.807Z,8.40
2018-10-02T09:30:11.943Z,8.40
2018-10-02T09:32:44.806Z,8.50
2018-10-02T09:35:17.858Z,8.40
2018-10-02T09:37:50.862Z,8.40
2018-10-02T09:40:24.026Z,8.40
2018-10-02T09:42:57.194Z,8.40
2018-10-02T09:45:24.401Z,8.40
2018-10-02T09:47:51.729Z,8.40
2018-10-02T09:50:18.929Z,8.40
2018-10-02T09:52:46.185Z,8.30
2018-10-02T09:55:13.382Z,8.30
2018-10-02T09:57:40.603Z,8.30
2018-10-02T10:02:50.936Z,8.20
2018-10-02T10:05:18.149Z,8.30
2018-10-02T10:07:45.537Z,8.30
2018-10-02T10:10:12.858Z,8.40
2018-10-02T10:12:40.159Z,8.30
2018-10-02T10:15:07.377Z,8.30
2018-10-02T10:17:34.614Z,8.30
2018-10-02T10:20:01.886Z,8.30
2018-10-02T10:22:29.208Z,8.30
2018-10-02T10:24:56.398Z,8.30
2018-10-02T10:27:23.714Z,8.30
2018-10-02T10:29:50.890Z,8.30
2018-10-02T10:32:18.089Z,8.40
2018-10-02T10:34:45.364Z,8.40
2018-10-02T10:37:13.221Z,8.40
2018-10-02T10:39:40.585Z,8.40
2018-10-02T10:42:07.919Z,8.40
2018-10-02T10:44:35.101Z,8.40
2018-10-02T10:47:02.394Z,8.40
2018-10-02T10:49:29.703Z,8.50
2018-10-02T10:51:56.926Z,8.50
2018-10-02T10:54:24.137Z,8.50
2018-10-02T10:56:51.334Z,8.50
2018-10-02T10:59:18.561Z,8.50
2018-10-02T11:01:45.769Z,8.60
2018-10-02T11:04:12.994Z,8.70
2018-10-02T11:06:40.226Z,8.70
2018-10-02T11:09:08.622Z,8.70
2018-10-02T11:11:36.078Z,8.70
2018-10-02T11:14:03.445Z,8.70
2018-10-02T11:16:30.646Z,8.80
2018-10-02T11:18:57.923Z,8.80
2018-10-02T11:21:25.148Z,8.80
2018-10-02T11:23:53.219Z,8.70
2018-10-02T11:26:20.442Z,8.80
2018-10-02T11:28:47.665Z,8.80
2018-10-02T11:31:14.886Z,8.80
2018-10-02T11:33:42.162Z,8.80
2018-10-02T11:36:09.635Z,8.80
2018-10-02T11:38:36.929Z,8.80
2018-10-02T11:41:04.162Z,8.80
2018-10-02T11:43:31.423Z,8.90
2018-10-02T11:45:58.713Z,8.90
2018-10-02T11:48:25.950Z,9.00
2018-10-02T11:50:53.413Z,9.00
2018-10-02T11:53:20.620Z,9.00
2018-10-02T11:55:47.964Z,9.10
2018-10-02T11:58:15.065Z,9.00
2018-10-02T12:00:42.473Z,9.00
2018-10-02T12:03:09.714Z,9.10
2018-10-02T12:05:36.901Z,9.10
2018-10-02T12:08:04.449Z,9.10
2018-10-02T12:10:31.735Z,9.10
2018-10-02T12:12:59.070Z,9.10
2018-10-02T12:15:26.282Z,9.10
2018-10-02T12:17:53.514Z,9.20
2018-10-02T12:20:20.755Z,9.20
2018-10-02T12:22:47.953Z,9.20
2018-10-02T12:25:15.155Z,9.20
2018-10-02T12:27:42.469Z,9.30
2018-10-02T12:30:09.722Z,9.30
2018-10-02T12:32:36.944Z,9.40
2018-10-02T12:35:04.209Z,9.50
2018-10-02T12:37:31.377Z,9.50
2018-10-02T12:39:58.568Z,9.50
2018-10-02T12:42:26.167Z,9.50
2018-10-02T12:44:53.371Z,9.50
2018-10-02T12:47:20.565Z,9.50
2018-10-02T12:49:47.802Z,9.50
2018-10-02T12:52:15.271Z,9.50
2018-10-02T12:54:42.581Z,9.50
2018-10-02T12:57:09.772Z,9.50
2018-10-02T12:59:36.997Z,9.60
2018-10-02T13:02:04.337Z,9.60
2018-10-02T13:04:31.537Z,9.60
2018-10-02T13:06:58.776Z,9.70
2018-10-02T13:09:26.080Z,9.60
2018-10-02T13:11:53.498Z,9.70
2018-10-02T13:14:20.729Z,9.70
2018-10-02T13:16:48.067Z,9.70
2018-10-02T13:19:15.229Z,9.70
2018-10-02T13:21:42.450Z,9.70
2018-10-02T13:24:09.721Z,9.70
2018-10-02T13:26:36.959Z,9.80
2018-10-02T13:29:04.212Z,9.80
2018-10-02T13:31:31.443Z,9.80
2018-10-02T13:33:58.681Z,9.80
2018-10-02T13:36:25.893Z,9.80
2018-10-02T13:38:53.150Z,9.90
2018-10-02T13:41:20.354Z,9.90
2018-10-02T13:43:47.597Z,9.90
2018-10-02T13:46:15.045Z,10.00
2018-10-02T13:48:42.257Z,10.00
2018-10-02T13:51:09.574Z,10.00
2018-10-02T13:53:36.857Z,10.00
2018-10-02T13:56:04.075Z,10.00
2018-10-02T13:58:31.349Z,10.10
2018-10-02T14:00:58.766Z,10.00
2018-10-02T14:03:25.969Z,10.10
2018-10-02T14:05:53.258Z,10.10
2018-10-02T14:08:20.557Z,10.10
2018-10-02T14:10:47.742Z,10.10
2018-10-02T14:13:15.001Z,10.20
2018-10-02T14:15:42.407Z,10.20
2018-10-02T14:18:09.706Z,10.20
2018-10-02T14:20:37.102Z,10.20
2018-10-02T14:23:04.389Z,10.20
2018-10-02T14:25:31.614Z,10.30
2018-10-02T14:27:58.848Z,10.30
2018-10-02T14:30:26.210Z,10.30
2018-10-02T14:32:53.481Z,10.40
2018-10-02T14:35:20.857Z,10.40
2018-10-02T14:37:48.095Z,10.50
2018-10-02T14:40:15.302Z,10.50
2018-10-02T14:42:42.525Z,10.50
2018-10-02T14:45:09.787Z,10.50
2018-10-02T14:47:37.097Z,10.60
2018-10-02T14:50:04.386Z,10.60
2018-10-02T14:52:31.825Z,10.60
2018-10-02T14:54:59.042Z,10.60
2018-10-02T14:57:26.343Z,10.70
2018-10-02T14:59:53.974Z,10.60
2018-10-02T15:02:21.201Z,10.70
2018-10-02T15:04:48.452Z,10.70
2018-10-02T15:07:15.813Z,10.70
2018-10-02T15:09:43.862Z,10.80
2018-10-02T15:12:11.249Z,10.80
2018-10-02T15:14:38.765Z,10.80
2018-10-02T15:17:06.037Z,10.90
2018-10-02T15:19:33.423Z,10.90
2018-10-02T15:22:00.798Z,10.90
2018-10-02T15:24:28.298Z,10.90
2018-10-02T15:26:55.544Z,10.90
2018-10-02T15:29:22.984Z,10.90
2018-10-02T15:31:50.188Z,11.00
2018-10-02T15:34:17.421Z,10.90
2018-10-02T15:36:44.645Z,11.00
2018-10-02T15:39:11.871Z,11.10
2018-10-02T15:41:39.669Z,11.10
2018-10-02T15:44:07.045Z,11.10
2018-10-02T15:46:34.294Z,11.10
2018-10-02T15:49:01.481Z,11.10
2018-10-02T15:51:28.794Z,11.20
2018-10-02T15:53:56.005Z,11.20
2018-10-02T15:56:23.499Z,11.20
2018-10-02T15:58:50.712Z,11.20
2018-10-02T16:01:17.945Z,11.30
2018-10-02T16:03:45.131Z,11.20
2018-10-02T16:06:12.606Z,11.30
2018-10-02T16:08:39.843Z,11.30
2018-10-02T16:11:07.173Z,11.40
2018-10-02T16:13:34.377Z,11.40
2018-10-02T16:16:01.881Z,11.40
2018-10-02T16:18:29.252Z,11.50
2018-10-02T16:20:56.397Z,11.50
2018-10-02T16:23:23.598Z,11.50
2018-10-02T16:25:50.857Z,11.50
2018-10-02T16:28:18.034Z,11.60
2018-10-02T16:30:45.244Z,11.60
2018-10-02T16:33:12.595Z,11.60
2018-10-02T16:35:39.886Z,11.60
2018-10-02T16:38:07.217Z,11.60
2018-10-02T16:40:34.509Z,11.60
2018-10-02T16:43:01.702Z,11.60
2018-10-02T16:45:28.922Z,11.70
2018-10-02T16:47:56.109Z,11.70
2018-10-02T16:50:23.394Z,11.70
2018-10-02T16:52:50.590Z,11.80
2018-10-02T16:55:17.768Z,11.70
2018-10-02T16:57:44.969Z,11.70
2018-10-02T17:00:12.306Z,11.70
2018-10-02T17:02:39.559Z,11.80
2018-10-02T17:05:06.873Z,11.80
2018-10-02T17:07:34.097Z,11.80
2018-10-02T17:10:01.322Z,11.80
2018-10-02T17:12:28.502Z,11.80
2018-10-02T17:14:55.717Z,11.80
2018-10-02T17:17:22.901Z,11.80
2018-10-02T17:19:50.132Z,11.90
2018-10-02T17:22:17.381Z,11.90
2018-10-02T17:24:44.591Z,11.90
2018-10-02T17:27:11.957Z,11.90
2018-10-02T17:29:39.269Z,11.90
2018-10-02T17:32:07.072Z,11.90
2018-10-02T17:34:34.434Z,11.90
2018-10-02T17:37:01.979Z,12.00
2018-10-02T17:39:29.566Z,12.00
2018-10-02T17:41:56.934Z,12.00
2018-10-02T17:44:24.345Z,12.00
2018-10-02T17:46:51.747Z,12.00
2018-10-02T17:49:19.085Z,12.00
2018-10-02T17:51:46.391Z,12.00
2018-10-02T17:54:13.798Z,12.00
2018-10-02T17:56:41.138Z,12.00
2018-10-02T17:59:08.728Z,12.00
2018-10-02T18:01:36.196Z,12.10
2018-10-02T18:04:03.538Z,12.00
2018-10-02T18:06:30.983Z,12.10
2018-10-02T18:08:58.422Z,12.10
2018-10-02T18:11:26.081Z,12.10
2018-10-02T18:13:53.428Z,12.00
2018-10-02T18:16:21.361Z,12.10
2018-10-02T18:18:48.740Z,12.00
2018-10-02T18:21:16.213Z,12.00
2018-10-02T18:23:43.484Z,12.00
2018-10-02T18:26:10.821Z,12.00
2018-10-02T18:28:38.184Z,12.10
2018-10-02T18:31:05.486Z,12.00
2018-10-02T18:33:33.041Z,12.00
2018-10-02T18:36:00.444Z,12.00
2018-10-02T18:38:27.887Z,11.90
2018-10-02T18:40:55.468Z,11.90
2018-10-02T18:43:22.887Z,11.90
2018-10-02T18:45:50.175Z,11.90
2018-10-02T18:48:17.580Z,11.90
2018-10-02T18:50:44.888Z,11.90
2018-10-02T18:53:12.194Z,11.90
2018-10-02T18:55:40.422Z,11.80
2018-10-02T18:58:07.709Z,11.80
2018-10-02T19:00:35.448Z,11.80
2018-10-02T19:03:02.798Z,11.70
2018-10-02T19:05:30.465Z,11.70
2018-10-02T19:07:57.827Z,11.60
2018-10-02T19:10:25.475Z,11.60
2018-10-02T19:12:52.907Z,11.50
2018-10-02T19:15:20.334Z,11.40
2018-10-02T19:17:48.184Z,11.40
2018-10-02T19:20:21.300Z,11.40
2018-10-02T19:22:53.667Z,11.30
2018-10-02T19:25:26.744Z,11.30
2018-10-02T19:27:54.068Z,11.30
2018-10-02T19:30:27.310Z,11.20
2018-10-02T19:32:55.258Z,11.20
2018-10-02T19:35:22.661Z,11.30
2018-10-02T19:37:56.441Z,11.30
2018-10-02T19:40:23.873Z,11.30
2018-10-02T19:42:51.266Z,11.30
2018-10-02T19:45:24.218Z,11.30
2018-10-02T19:47:51.669Z,11.30
2018-10-02T19:50:19.277Z,11.30
2018-10-02T19:52:46.657Z,11.40
2018-10-02T19:55:13.981Z,11.40
2018-10-02T19:57:42.778Z,11.40
2018-10-02T20:00:10.285Z,11.50
2018-10-02T20:02:37.747Z,11.50
2018-10-02T20:05:05.259Z,11.50
2018-10-02T20:07:32.852Z,11.40
2018-10-02T20:10:00.300Z,11.40
2018-10-02T20:12:27.847Z,11.50
2018-10-02T20:14:55.149Z,11.50
2018-10-02T20:17:22.359Z,11.50
2018-10-02T20:19:49.645Z,11.60
2018-10-02T20:22:16.909Z,11.60
2018-10-02T20:24:44.177Z,11.60
2018-10-02T20:27:12.184Z,11.60
2018-10-02T20:29:39.378Z,11.60
2018-10-02T20:32:07.362Z,11.60
2018-10-02T20:34:34.611Z,11.60
2018-10-02T20:37:02.054Z,11.70
2018-10-02T20:39:29.319Z,11.60
2018-10-02T20:41:56.574Z,11.70
2018-10-02T20:44:23.798Z,11.60
2018-10-02T20:46:51.030Z,11.60
2018-10-02T20:49:18.326Z,11.60
2018-10-02T20:51:45.839Z,11.60
2018-10-02T20:54:13.030Z,11.60
2018-10-02T20:56:40.237Z,11.60
2018-10-02T20:59:07.662Z,11.60
2018-10-02T21:01:34.848Z,11.60
2018-10-02T21:04:02.223Z,11.50
2018-10-02T21:06:29.549Z,11.50
2018-10-02T21:08:56.866Z,11.50
2018-10-02T21:11:24.102Z,11.60
2018-10-02T21:13:51.949Z,11.50
2018-10-02T21:16:19.234Z,11.50
2018-10-02T21:18:46.480Z,11.40
2018-10-02T21:21:13.752Z,11.50
2018-10-02T21:23:40.934Z,11.30
2018-10-02T21:26:08.151Z,11.30
2018-10-02T21:28:35.446Z,11.30
2018-10-02T21:31:02.757Z,11.20
2018-10-02T21:33:30.051Z,11.20
2018-10-02T21:35:57.620Z,11.20
2018-10-02T21:38:24.806Z,11.10
2018-10-02T21:40:52.358Z,11.10
2018-10-02T21:43:19.586Z,11.10
2018-10-02T21:45:46.861Z,11.10
2018-10-02T21:48:14.326Z,11.10
2018-10-02T21:50:41.546Z,11.10
2018-10-02T21:53:08.762Z,11.20
2018-10-02T21:55:36.026Z,11.10
2018-10-02T21:58:03.247Z,11.20
2018-10-02T22:00:31.654Z,11.10
2018-10-02T22:02:58.985Z,11.10
2018-10-02T22:05:26.195Z,11.10
2018-10-02T22:07:53.507Z,11.10
2018-10-02T22:10:20.718Z,11.10
2018-10-02T22:12:47.919Z,11.10
2018-10-02T22:15:15.212Z,11.10
2018-10-02T22:17:42.486Z,11.10
2018-10-02T22:20:09.689Z,11.00
2018-10-02T22:22:36.885Z,11.00
2018-10-02T22:25:04.226Z,11.00
2018-10-02T22:27:31.413Z,10.90
2018-10-02T22:29:58.625Z,10.80
2018-10-02T22:32:25.929Z,10.80
2018-10-02T22:34:53.174Z,10.80
2018-10-02T22:37:20.466Z,10.70
2018-10-02T22:39:47.666Z,10.70
2018-10-02T22:42:14.866Z,10.70
2018-10-02T22:44:42.085Z,10.80
2018-10-02T22:47:09.496Z,10.80
2018-10-02T22:49:36.802Z,10.80
2018-10-02T22:52:04.058Z,10.90
2018-10-02T22:54:31.334Z,10.90
2018-10-02T22:56:58.577Z,10.80
2018-10-02T22:59:25.797Z,10.70
2018-10-02T23:01:53.208Z,10.70
2018-10-02T23:04:20.540Z,10.60
2018-10-02T23:06:47.788Z,10.60
2018-10-02T23:09:15.241Z,10.60
2018-10-02T23:11:42.568Z,10.50
2018-10-02T23:14:10.014Z,10.50
2018-10-02T23:16:37.304Z,10.50
2018-10-02T23:19:05.024Z,10.50
2018-10-02T23:21:32.323Z,10.40
2018-10-02T23:23:59.910Z,10.40
2018-10-02T23:26:27.477Z,10.40
2018-10-02T23:28:55.185Z,10.40
2018-10-02T23:31:22.453Z,10.40
2018-10-02T23:33:49.773Z,10.40
2018-10-02T23:36:17.090Z,10.30
2018-10-02T23:38:44.457Z,10.30
2018-10-02T23:41:11.673Z,10.20
2018-10-02T23:43:38.930Z,10.20
2018-10-02T23:46:06.158Z,10.20
2018-10-02T23:48:33.465Z,10.10
2018-10-02T23:51:00.670Z,10.20
2018-10-02T23:53:27.975Z,10.10
2018-10-02T23:55:55.170Z,10.10
2018-10-02T23:58:22.381Z,10.10
